createdAt,value
2023-05-09T00:00:32.176Z,100.00
2023-05-09T00:03:33.646Z,100.00
2023-05-09T00:06:35.419Z,100.00
2023-05-09T00:09:36.897Z,100.00
2023-05-09T00:12:38.452Z,100.00
2023-05-09T00:15:39.951Z,100.00
2023-05-09T00:18:42.278Z,100.00
2023-05-09T00:21:43.828Z,100.00
2023-05-09T00:24:45.302Z,100.00
2023-05-09T00:27:46.766Z,100.00
2023-05-09T00:30:48.217Z,100.00
2023-05-09T00:33:49.705Z,100.00
2023-05-09T00:36:51.214Z,100.00
2023-05-09T00:39:52.647Z,100.00
2023-05-09T00:42:55.921Z,100.00
2023-05-09T00:45:57.731Z,100.00
2023-05-09T00:48:59.363Z,100.00
2023-05-09T00:52:02.230Z,100.00
2023-05-09T00:55:05.398Z,100.00
2023-05-09T00:58:06.880Z,100.00
2023-05-09T01:01:08.762Z,100.00
2023-05-09T01:04:11.364Z,100.00
2023-05-09T01:07:43.556Z,100.00
2023-05-09T01:11:01.208Z,100.00
2023-05-09T01:14:15.449Z,100.00
2023-05-09T01:17:32.346Z,100.00
2023-05-09T01:20:39.578Z,100.00
2023-05-09T01:23:44.241Z,100.00
2023-05-09T01:27:04.373Z,100.00
2023-05-09T01:30:09.147Z,100.00
2023-05-09T01:33:16.825Z,100.00
2023-05-09T01:36:21.398Z,100.00
2023-05-09T01:39:25.281Z,100.00
2023-05-09T01:42:30.830Z,100.00
2023-05-09T01:45:33.988Z,100.00
2023-05-09T01:48:37.829Z,100.00
2023-05-09T01:51:43.704Z,100.00
2023-05-09T01:54:48.122Z,100.00
2023-05-09T01:57:50.309Z,100.00
2023-05-09T02:00:52.856Z,100.00
2023-05-09T02:03:55.925Z,100.00
2023-05-09T02:06:58.894Z,100.00
2023-05-09T02:10:00.903Z,100.00
2023-05-09T02:13:02.420Z,100.00
2023-05-09T02:16:05.984Z,100.00
2023-05-09T02:19:07.888Z,100.00
2023-05-09T02:22:11.665Z,100.00
2023-05-09T02:25:17.117Z,100.00
2023-05-09T02:28:20.808Z,100.00
2023-05-09T02:31:23.987Z,100.00
2023-05-09T02:34:25.816Z,100.00
2023-05-09T02:37:28.000Z,100.00
2023-05-09T02:40:30.424Z,100.00
2023-05-09T02:43:31.943Z,100.00
2023-05-09T02:46:33.473Z,100.00
2023-05-09T02:49:35.001Z,100.00
2023-05-09T02:52:38.685Z,100.00
2023-05-09T02:55:40.200Z,100.00
2023-05-09T02:58:41.702Z,100.00
2023-05-09T03:01:43.204Z,100.00
2023-05-09T03:04:45.496Z,100.00
2023-05-09T03:07:47.320Z,100.00
2023-05-09T03:10:48.818Z,100.00
2023-05-09T03:13:50.957Z,100.00
2023-05-09T03:16:52.536Z,100.00
2023-05-09T03:20:02.384Z,100.00
2023-05-09T03:23:05.586Z,100.00
2023-05-09T03:26:07.097Z,100.00
2023-05-09T03:29:08.660Z,100.00
2023-05-09T03:32:10.170Z,100.00
2023-05-09T03:35:11.951Z,100.00
2023-05-09T03:38:13.444Z,100.00
2023-05-09T03:41:16.849Z,100.00
2023-05-09T03:44:20.525Z,100.00
2023-05-09T03:47:21.965Z,100.00
2023-05-09T03:50:24.046Z,100.00
2023-05-09T03:53:27.554Z,100.00
2023-05-09T03:56:29.848Z,100.00
2023-05-09T03:59:31.664Z,100.00
2023-05-09T04:02:34.406Z,100.00
2023-05-09T04:05:36.237Z,100.00
2023-05-09T04:08:39.651Z,100.00
2023-05-09T04:11:42.072Z,100.00
2023-05-09T04:14:48.895Z,100.00
2023-05-09T04:17:51.410Z,100.00
2023-05-09T04:20:53.525Z,100.00
2023-05-09T04:23:55.637Z,100.00
2023-05-09T04:27:04.892Z,100.00
2023-05-09T04:30:07.253Z,100.00
2023-05-09T04:33:09.392Z,100.00
2023-05-09T04:36:11.279Z,100.00
2023-05-09T04:39:13.295Z,100.00
2023-05-09T04:42:22.830Z,100.00
2023-05-09T04:45:24.448Z,100.00
2023-05-09T04:48:26.112Z,100.00
2023-05-09T04:51:27.566Z,100.00
2023-05-09T04:54:29.154Z,100.00
2023-05-09T04:57:30.851Z,100.00
2023-05-09T05:00:33.449Z,100.00
2023-05-09T05:03:35.025Z,100.00
2023-05-09T05:06:36.611Z,100.00
2023-05-09T05:09:39.056Z,100.00
2023-05-09T05:12:40.824Z,100.00
2023-05-09T05:15:45.310Z,100.00
2023-05-09T05:18:48.309Z,100.00
2023-05-09T05:21:50.659Z,100.00
2023-05-09T05:24:52.435Z,100.00
2023-05-09T05:27:54.283Z,100.00
2023-05-09T05:30:56.006Z,100.00
2023-05-09T05:33:57.542Z,100.00
2023-05-09T05:36:59.779Z,100.00
2023-05-09T05:40:01.461Z,100.00
2023-05-09T05:43:03.017Z,100.00
2023-05-09T05:46:06.286Z,100.00
2023-05-09T05:49:09.353Z,100.00
2023-05-09T05:52:10.851Z,100.00
2023-05-09T05:55:12.772Z,100.00
2023-05-09T05:58:14.692Z,100.00
2023-05-09T06:01:16.382Z,100.00
2023-05-09T06:04:18.083Z,100.00
2023-05-09T06:07:19.798Z,100.00
2023-05-09T06:10:21.596Z,100.00
2023-05-09T06:13:26.587Z,100.00
2023-05-09T06:16:35.416Z,100.00
2023-05-09T06:19:37.638Z,100.00
2023-05-09T06:22:39.500Z,100.00
2023-05-09T06:25:41.139Z,100.00
2023-05-09T06:28:42.614Z,100.00
2023-05-09T06:31:44.086Z,100.00
2023-05-09T06:34:45.630Z,100.00
2023-05-09T06:37:48.684Z,100.00
2023-05-09T06:40:50.800Z,100.00
2023-05-09T06:43:52.879Z,100.00
2023-05-09T06:46:54.433Z,100.00
2023-05-09T06:49:55.935Z,100.00
2023-05-09T06:52:57.410Z,100.00
2023-05-09T06:55:59.333Z,100.00
2023-05-09T06:59:00.891Z,100.00
2023-05-09T07:02:02.489Z,100.00
2023-05-09T07:05:04.293Z,100.00
2023-05-09T07:08:05.787Z,99.37
2023-05-09T07:11:07.270Z,99.18
2023-05-09T07:14:08.806Z,99.20
2023-05-09T07:17:22.134Z,99.14
2023-05-09T07:20:25.635Z,98.25
2023-05-09T07:23:27.118Z,97.17
2023-05-09T07:26:28.779Z,97.22
2023-05-09T07:29:30.288Z,97.06
2023-05-09T07:32:32.067Z,95.36
2023-05-09T07:35:33.602Z,94.52
2023-05-09T07:38:35.137Z,93.02
2023-05-09T07:41:36.574Z,91.54
2023-05-09T07:44:38.033Z,90.17
2023-05-09T07:47:39.598Z,88.54
2023-05-09T07:50:41.104Z,88.25
2023-05-09T07:53:42.619Z,86.63
2023-05-09T07:56:44.162Z,85.44
2023-05-09T07:59:45.612Z,84.30
2023-05-09T08:02:47.191Z,82.50
2023-05-09T08:05:48.819Z,81.34
2023-05-09T08:08:50.315Z,81.51
2023-05-09T08:11:52.074Z,82.41
2023-05-09T08:14:53.589Z,83.47
2023-05-09T08:18:10.024Z,84.90
2023-05-09T08:21:11.676Z,83.61
2023-05-09T08:24:13.540Z,82.36
2023-05-09T08:27:15.618Z,80.54
2023-05-09T08:30:17.266Z,80.02
2023-05-09T08:33:19.087Z,79.62
2023-05-09T08:36:20.635Z,78.88
2023-05-09T08:39:22.506Z,77.85
2023-05-09T08:42:26.636Z,77.72
2023-05-09T08:45:30.419Z,77.74
2023-05-09T08:48:36.011Z,76.18
2023-05-09T08:51:38.153Z,74.88
2023-05-09T08:54:40.059Z,73.64
2023-05-09T08:57:41.724Z,72.69
2023-05-09T09:00:43.416Z,72.25
2023-05-09T09:03:49.396Z,71.79
2023-05-09T09:06:53.700Z,71.45
2023-05-09T09:09:56.663Z,70.61
2023-05-09T09:12:59.808Z,70.50
2023-05-09T09:16:02.079Z,68.90
2023-05-09T09:19:09.048Z,67.82
2023-05-09T09:22:15.642Z,66.14
2023-05-09T09:25:17.304Z,65.09
2023-05-09T09:28:18.875Z,64.06
2023-05-09T09:31:28.278Z,64.04
2023-05-09T09:34:29.828Z,63.46
2023-05-09T09:37:34.326Z,63.75
2023-05-09T09:40:39.241Z,63.52
2023-05-09T09:43:46.089Z,63.22
2023-05-09T09:46:52.574Z,63.55
2023-05-09T09:49:54.070Z,62.52
2023-05-09T09:52:56.508Z,61.79
2023-05-09T09:55:58.455Z,61.37
2023-05-09T09:59:09.527Z,61.19
2023-05-09T10:02:12.513Z,61.54
2023-05-09T10:05:23.166Z,61.09
2023-05-09T10:08:24.907Z,60.88
2023-05-09T10:11:26.400Z,60.64
2023-05-09T10:14:28.029Z,60.64
2023-05-09T10:17:31.682Z,60.69
2023-05-09T10:20:33.691Z,61.44
2023-05-09T10:23:38.338Z,61.09
2023-05-09T10:26:45.382Z,61.91
2023-05-09T10:29:52.107Z,61.59
2023-05-09T10:33:08.240Z,62.20
2023-05-09T10:36:10.529Z,63.32
2023-05-09T10:39:12.528Z,63.92
2023-05-09T10:42:14.386Z,64.23
2023-05-09T10:45:16.147Z,64.72
2023-05-09T10:48:18.385Z,65.06
2023-05-09T10:51:19.999Z,64.83
2023-05-09T10:54:31.063Z,63.54
2023-05-09T10:57:32.852Z,62.81
2023-05-09T11:00:34.430Z,60.98
2023-05-09T11:04:08.434Z,60.01
2023-05-09T11:07:26.928Z,59.96
2023-05-09T11:10:42.381Z,59.14
2023-05-09T11:13:46.334Z,59.71
2023-05-09T11:16:58.759Z,59.05
2023-05-09T11:20:03.718Z,58.78
2023-05-09T11:23:06.730Z,58.60
2023-05-09T11:26:09.099Z,58.88
2023-05-09T11:29:10.662Z,57.78
2023-05-09T11:32:15.746Z,58.21
2023-05-09T11:35:20.714Z,58.12
2023-05-09T11:38:23.018Z,57.43
2023-05-09T11:41:24.652Z,57.17
2023-05-09T11:44:28.098Z,56.85
2023-05-09T11:47:30.844Z,56.38
2023-05-09T11:50:32.752Z,56.64
2023-05-09T11:53:34.413Z,56.46
2023-05-09T11:56:39.649Z,56.13
2023-05-09T11:59:41.239Z,55.79
2023-05-09T12:02:44.378Z,55.49
2023-05-09T12:05:48.350Z,55.34
2023-05-09T12:08:49.951Z,55.80
2023-05-09T12:11:51.932Z,55.63
2023-05-09T12:14:53.412Z,55.84
2023-05-09T12:18:03.974Z,54.76
2023-05-09T12:21:07.187Z,54.51
2023-05-09T12:24:08.816Z,54.57
2023-05-09T12:27:10.496Z,54.75
2023-05-09T12:30:14.127Z,53.80
2023-05-09T12:33:16.108Z,53.55
2023-05-09T12:36:17.608Z,53.45
2023-05-09T12:39:22.414Z,53.49
2023-05-09T12:42:26.780Z,53.59
2023-05-09T12:45:28.525Z,53.17
2023-05-09T12:48:35.156Z,53.59
2023-05-09T12:51:36.592Z,53.93
2023-05-09T12:54:38.091Z,53.64
2023-05-09T12:57:40.653Z,53.60
2023-05-09T13:00:43.996Z,53.76
2023-05-09T13:03:51.826Z,53.54
2023-05-09T13:06:55.709Z,53.17
2023-05-09T13:09:57.357Z,52.68
2023-05-09T13:12:58.937Z,53.16
2023-05-09T13:16:00.568Z,53.78
2023-05-09T13:19:02.261Z,53.77
2023-05-09T13:22:03.776Z,54.14
2023-05-09T13:25:06.132Z,54.45
2023-05-09T13:28:08.725Z,55.08
2023-05-09T13:31:10.428Z,55.89
2023-05-09T13:34:11.926Z,56.56
2023-05-09T13:37:13.470Z,58.21
2023-05-09T13:40:15.351Z,59.91
2023-05-09T13:43:17.173Z,60.20
2023-05-09T13:46:18.781Z,60.18
2023-05-09T13:49:20.380Z,60.92
2023-05-09T13:52:22.106Z,62.95
2023-05-09T13:55:25.942Z,62.08
2023-05-09T13:58:27.466Z,61.12
2023-05-09T14:01:28.990Z,60.76
2023-05-09T14:04:34.379Z,60.93
2023-05-09T14:07:36.202Z,62.11
2023-05-09T14:10:37.748Z,62.41
2023-05-09T14:13:39.290Z,63.23
2023-05-09T14:16:40.784Z,65.50
2023-05-09T14:19:42.319Z,66.29
2023-05-09T14:22:43.833Z,67.69
2023-05-09T14:25:45.338Z,70.86
2023-05-09T14:28:46.943Z,75.07
2023-05-09T14:31:48.434Z,76.86
2023-05-09T14:34:50.022Z,79.24
2023-05-09T14:37:51.490Z,81.64
2023-05-09T14:40:52.977Z,83.96
2023-05-09T14:43:54.486Z,85.53
2023-05-09T14:46:56.391Z,86.07
2023-05-09T14:49:57.873Z,87.20
2023-05-09T14:53:00.892Z,87.20
2023-05-09T14:56:02.511Z,85.90
2023-05-09T14:59:04.236Z,86.29
2023-05-09T15:02:05.757Z,90.06
2023-05-09T15:05:08.187Z,100.00
2023-05-09T15:08:09.660Z,100.00
2023-05-09T15:11:11.199Z,100.00
2023-05-09T15:14:12.755Z,100.00
2023-05-09T15:17:14.412Z,100.00
2023-05-09T15:20:18.170Z,100.00
2023-05-09T15:23:20.301Z,100.00
2023-05-09T15:26:22.336Z,100.00
2023-05-09T15:29:23.758Z,100.00
2023-05-09T15:32:25.262Z,100.00
2023-05-09T15:35:26.874Z,100.00
2023-05-09T15:38:28.747Z,100.00
2023-05-09T15:41:30.540Z,100.00
2023-05-09T15:44:32.086Z,100.00
2023-05-09T15:47:33.812Z,100.00
2023-05-09T15:50:35.263Z,100.00
2023-05-09T15:53:36.852Z,100.00
2023-05-09T15:56:38.418Z,100.00
2023-05-09T15:59:40.118Z,100.00
2023-05-09T16:02:44.034Z,100.00
2023-05-09T16:05:45.882Z,100.00
2023-05-09T16:08:47.690Z,100.00
2023-05-09T16:11:49.178Z,100.00
2023-05-09T16:14:50.674Z,100.00
2023-05-09T16:17:52.224Z,100.00
2023-05-09T16:20:53.717Z,100.00
2023-05-09T16:23:57.768Z,100.00
2023-05-09T16:26:59.252Z,100.00
2023-05-09T16:30:00.879Z,100.00
2023-05-09T16:33:02.484Z,100.00
2023-05-09T16:36:04.313Z,100.00
2023-05-09T16:39:05.890Z,100.00
2023-05-09T16:42:07.369Z,100.00
2023-05-09T16:45:09.096Z,100.00
2023-05-09T16:48:10.706Z,100.00
2023-05-09T16:51:12.277Z,100.00
2023-05-09T16:54:13.776Z,100.00
2023-05-09T16:57:15.213Z,100.00
2023-05-09T17:00:17.648Z,100.00
2023-05-09T17:03:19.255Z,100.00
2023-05-09T17:06:20.826Z,100.00
2023-05-09T17:09:22.514Z,100.00
2023-05-09T17:12:24.495Z,100.00
2023-05-09T17:15:26.865Z,100.00
2023-05-09T17:18:36.643Z,100.00
2023-05-09T17:21:41.731Z,100.00
2023-05-09T17:24:43.964Z,100.00
2023-05-09T17:27:45.669Z,100.00
2023-05-09T17:30:47.129Z,100.00
2023-05-09T17:33:48.681Z,100.00
2023-05-09T17:36:50.228Z,100.00
2023-05-09T17:39:51.825Z,100.00
2023-05-09T17:42:53.410Z,100.00
2023-05-09T17:45:55.140Z,100.00
2023-05-09T17:48:56.667Z,100.00
2023-05-09T17:51:58.475Z,100.00
2023-05-09T17:55:01.020Z,100.00
2023-05-09T17:58:02.505Z,100.00
2023-05-09T18:01:04.043Z,100.00
2023-05-09T18:04:06.327Z,100.00
2023-05-09T18:07:08.461Z,100.00
2023-05-09T18:10:10.390Z,100.00
2023-05-09T18:13:12.231Z,100.00
2023-05-09T18:16:13.872Z,100.00
2023-05-09T18:19:15.486Z,100.00
2023-05-09T18:22:19.219Z,100.00
2023-05-09T18:25:20.819Z,100.00
2023-05-09T18:28:25.649Z,100.00
2023-05-09T18:31:27.668Z,100.00
2023-05-09T18:34:30.284Z,100.00
2023-05-09T18:37:31.844Z,100.00
2023-05-09T18:40:33.408Z,100.00
2023-05-09T18:43:35.907Z,100.00
2023-05-09T18:46:37.960Z,100.00
2023-05-09T18:49:39.449Z,100.00
2023-05-09T18:52:41.057Z,100.00
2023-05-09T18:55:42.786Z,100.00
2023-05-09T18:58:44.447Z,100.00
2023-05-09T19:01:45.978Z,100.00
2023-05-09T19:04:48.111Z,100.00
2023-05-09T19:07:49.854Z,100.00
2023-05-09T19:10:51.362Z,100.00
2023-05-09T19:13:53.579Z,100.00
2023-05-09T19:16:55.090Z,100.00
2023-05-09T19:19:56.918Z,100.00
2023-05-09T19:22:58.993Z,100.00
2023-05-09T19:26:00.596Z,100.00
2023-05-09T19:29:07.626Z,100.00
2023-05-09T19:32:09.096Z,100.00
2023-05-09T19:35:10.902Z,100.00
2023-05-09T19:38:12.507Z,100.00
2023-05-09T19:41:14.066Z,100.00
2023-05-09T19:44:15.562Z,100.00
2023-05-09T19:47:17.042Z,100.00
2023-05-09T19:50:18.802Z,100.00
2023-05-09T19:53:20.352Z,100.00
2023-05-09T19:56:23.143Z,100.00
2023-05-09T19:59:24.697Z,100.00
2023-05-09T20:02:26.530Z,100.00
2023-05-09T20:05:28.129Z,100.00
2023-05-09T20:08:29.997Z,100.00
2023-05-09T20:11:31.616Z,100.00
2023-05-09T20:14:33.139Z,100.00
2023-05-09T20:17:34.729Z,100.00
2023-05-09T20:20:38.247Z,100.00
2023-05-09T20:23:39.801Z,100.00
2023-05-09T20:26:41.350Z,100.00
2023-05-09T20:29:42.989Z,100.00
2023-05-09T20:32:44.638Z,100.00
2023-05-09T20:35:49.175Z,100.00
2023-05-09T20:38:50.704Z,100.00
2023-05-09T20:41:52.332Z,100.00
2023-05-09T20:44:54.774Z,100.00
2023-05-09T20:47:56.596Z,100.00
2023-05-09T20:50:58.146Z,100.00
2023-05-09T20:54:00.035Z,100.00
2023-05-09T20:57:01.524Z,100.00
2023-05-09T21:00:03.832Z,100.00
2023-05-09T21:03:07.431Z,100.00
2023-05-09T21:06:09.138Z,100.00
2023-05-09T21:09:11.208Z,100.00
2023-05-09T21:12:12.703Z,100.00
2023-05-09T21:15:14.707Z,100.00
2023-05-09T21:18:16.526Z,100.00
2023-05-09T21:21:17.988Z,100.00
2023-05-09T21:24:19.463Z,100.00
2023-05-09T21:27:20.913Z,100.00
2023-05-09T21:30:22.510Z,100.00
2023-05-09T21:33:23.947Z,100.00
2023-05-09T21:36:25.693Z,100.00
2023-05-09T21:39:27.132Z,100.00
2023-05-09T21:42:28.549Z,100.00
2023-05-09T21:45:30.361Z,100.00
2023-05-09T21:48:31.848Z,100.00
2023-05-09T21:51:34.077Z,100.00
2023-05-09T21:54:35.582Z,100.00
2023-05-09T21:57:37.054Z,100.00
2023-05-09T22:00:38.563Z,100.00
2023-05-09T22:03:40.170Z,100.00
2023-05-09T22:06:42.690Z,100.00
2023-05-09T22:09:44.134Z,100.00
2023-05-09T22:12:46.007Z,100.00
2023-05-09T22:15:47.522Z,100.00
2023-05-09T22:18:49.102Z,100.00
2023-05-09T22:21:50.584Z,100.00
2023-05-09T22:24:52.201Z,100.00
2023-05-09T22:27:54.913Z,100.00
2023-05-09T22:30:56.940Z,100.00
2023-05-09T22:33:58.394Z,100.00
2023-05-09T22:36:59.800Z,100.00
2023-05-09T22:40:01.487Z,100.00
2023-05-09T22:43:03.341Z,100.00
2023-05-09T22:46:05.029Z,100.00
2023-05-09T22:49:06.844Z,100.00
2023-05-09T22:52:09.064Z,100.00
2023-05-09T22:55:11.310Z,100.00
2023-05-09T22:58:12.945Z,100.00
2023-05-09T23:01:14.413Z,100.00
2023-05-09T23:04:16.891Z,100.00
2023-05-09T23:07:18.382Z,100.00
2023-05-09T23:10:19.850Z,100.00
2023-05-09T23:13:21.369Z,100.00
2023-05-09T23:16:23.138Z,100.00
2023-05-09T23:19:24.884Z,100.00
2023-05-09T23:22:26.448Z,100.00
2023-05-09T23:25:27.906Z,100.00
2023-05-09T23:28:29.378Z,100.00
2023-05-09T23:31:30.942Z,100.00
2023-05-09T23:34:32.492Z,100.00
2023-05-09T23:37:34.079Z,100.00
2023-05-09T23:40:35.611Z,100.00
2023-05-09T23:43:37.686Z,100.00
2023-05-09T23:46:39.245Z,100.00
2023-05-09T23:49:41.191Z,100.00
2023-05-09T23:52:42.665Z,100.00
2023-05-09T23:55:44.167Z,100.00
2023-05-09T23:58:45.697Z,100.00
